sensor_id;sensor_type;location;lat;lon;timestamp;pressure;altitude;pressure_sealevel;temperature;humidity
54948;BME280;41113;41.882;12.530;2022-09-13T00:00:18;100945.03;;;22.91;67.18
54948;BME280;41113;41.882;12.530;2022-09-13T00:02:44;100940.38;;;22.79;68.00
54948;BME280;41113;41.882;12.530;2022-09-13T00:05:09;100931.91;;;22.74;67.82
54948;BME280;41113;41.882;12.530;2022-09-13T00:07:34;100941.81;;;22.75;67.45
54948;BME280;41113;41.882;12.530;2022-09-13T00:10:00;100954.03;;;22.65;67.48
54948;BME280;41113;41.882;12.530;2022-09-13T00:12:25;100946.66;;;22.59;68.38
54948;BME280;41113;41.882;12.530;2022-09-13T00:14:50;100946.66;;;22.46;68.73
54948;BME280;41113;41.882;12.530;2022-09-13T00:17:16;100949.13;;;22.34;68.69
54948;BME280;41113;41.882;12.530;2022-09-13T00:19:41;100953.53;;;22.29;68.93
54948;BME280;41113;41.882;12.530;2022-09-13T00:22:07;100956.50;;;22.27;69.00
54948;BME280;41113;41.882;12.530;2022-09-13T00:24:32;100951.19;;;22.13;69.66
54948;BME280;41113;41.882;12.530;2022-09-13T00:26:59;100951.72;;;22.01;70.61
54948;BME280;41113;41.882;12.530;2022-09-13T00:29:25;100953.00;;;21.99;71.07
54948;BME280;41113;41.882;12.530;2022-09-13T00:31:51;100956.56;;;21.99;71.41
54948;BME280;41113;41.882;12.530;2022-09-13T00:34:16;100959.28;;;21.93;70.87
54948;BME280;41113;41.882;12.530;2022-09-13T00:36:42;100964.56;;;22.01;70.77
54948;BME280;41113;41.882;12.530;2022-09-13T00:39:12;100959.91;;;21.88;71.37
54948;BME280;41113;41.882;12.530;2022-09-13T00:41:37;100963.59;;;21.74;71.68
54948;BME280;41113;41.882;12.530;2022-09-13T00:44:04;100969.03;;;21.67;72.24
54948;BME280;41113;41.882;12.530;2022-09-13T00:46:43;100963.94;;;21.58;73.01
54948;BME280;41113;41.882;12.530;2022-09-13T00:49:18;100962.22;;;21.50;72.83
54948;BME280;41113;41.882;12.530;2022-09-13T00:51:49;100967.53;;;21.58;72.84
54948;BME280;41113;41.882;12.530;2022-09-13T00:54:19;100966.91;;;21.63;72.38
54948;BME280;41113;41.882;12.530;2022-09-13T00:56:52;100963.31;;;21.56;72.96
54948;BME280;41113;41.882;12.530;2022-09-13T00:59:43;100969.47;;;21.71;71.89
54948;BME280;41113;41.882;12.530;2022-09-13T01:02:08;100961.06;;;21.72;72.04
54948;BME280;41113;41.882;12.530;2022-09-13T01:04:34;100960.63;;;21.69;71.69
54948;BME280;41113;41.882;12.530;2022-09-13T01:07:07;100962.69;;;21.60;73.18
54948;BME280;41113;41.882;12.530;2022-09-13T01:09:38;100955.97;;;21.63;72.33
54948;BME280;41113;41.882;12.530;2022-09-13T01:12:08;100958.78;;;21.76;72.28
54948;BME280;41113;41.882;12.530;2022-09-13T01:14:39;100954.31;;;21.68;73.13
54948;BME280;41113;41.882;12.530;2022-09-13T01:17:04;100956.38;;;21.60;73.70
54948;BME280;41113;41.882;12.530;2022-09-13T01:19:30;100953.06;;;21.71;72.20
54948;BME280;41113;41.882;12.530;2022-09-13T01:24:47;100951.31;;;21.57;73.19
54948;BME280;41113;41.882;12.530;2022-09-13T01:27:32;100953.88;;;21.65;73.33
54948;BME280;41113;41.882;12.530;2022-09-13T01:41:27;100956.38;;;21.25;74.88
54948;BME280;41113;41.882;12.530;2022-09-13T01:44:18;100953.66;;;21.25;73.94
54948;BME280;41113;41.882;12.530;2022-09-13T01:49:42;100952.41;;;21.28;73.68
54948;BME280;41113;41.882;12.530;2022-09-13T01:52:17;100950.34;;;21.36;73.05
54948;BME280;41113;41.882;12.530;2022-09-13T01:59:55;100946.22;;;21.47;72.85
54948;BME280;41113;41.882;12.530;2022-09-13T02:02:31;100945.75;;;21.43;72.59
54948;BME280;41113;41.882;12.530;2022-09-13T02:05:13;100938.78;;;21.34;73.28
54948;BME280;41113;41.882;12.530;2022-09-13T02:07:45;100943.34;;;21.27;73.49
54948;BME280;41113;41.882;12.530;2022-09-13T02:10:24;100947.97;;;21.27;73.57
54948;BME280;41113;41.882;12.530;2022-09-13T02:12:52;100941.81;;;21.18;73.82
54948;BME280;41113;41.882;12.530;2022-09-13T02:15:48;100935.06;;;21.14;73.83
54948;BME280;41113;41.882;12.530;2022-09-13T02:18:27;100937.19;;;21.19;73.44
54948;BME280;41113;41.882;12.530;2022-09-13T02:20:59;100937.78;;;21.14;73.45
54948;BME280;41113;41.882;12.530;2022-09-13T02:23:35;100935.56;;;21.24;72.85
54948;BME280;41113;41.882;12.530;2022-09-13T02:26:03;100943.56;;;21.26;73.45
54948;BME280;41113;41.882;12.530;2022-09-13T02:28:35;100933.50;;;21.33;72.98
54948;BME280;41113;41.882;12.530;2022-09-13T02:31:05;100933.88;;;21.23;74.02
54948;BME280;41113;41.882;12.530;2022-09-13T02:33:35;100936.75;;;21.15;75.12
54948;BME280;41113;41.882;12.530;2022-09-13T02:36:11;100929.72;;;21.06;75.03
54948;BME280;41113;41.882;12.530;2022-09-13T02:38:45;100932.31;;;21.14;75.12
54948;BME280;41113;41.882;12.530;2022-09-13T02:58:11;100914.78;;;21.02;73.25
54948;BME280;41113;41.882;12.530;2022-09-13T03:00:39;100923.38;;;20.99;73.29
54948;BME280;41113;41.882;12.530;2022-09-13T03:03:08;100916.63;;;20.95;73.19
54948;BME280;41113;41.882;12.530;2022-09-13T03:05:35;100922.72;;;20.97;73.20
54948;BME280;41113;41.882;12.530;2022-09-13T03:08:01;100916.78;;;20.87;73.28
54948;BME280;41113;41.882;12.530;2022-09-13T03:10:39;100913.00;;;20.88;73.20
54948;BME280;41113;41.882;12.530;2022-09-13T03:13:27;100921.13;;;20.81;73.64
54948;BME280;41113;41.882;12.530;2022-09-13T03:21:29;100922.47;;;20.92;72.74
54948;BME280;41113;41.882;12.530;2022-09-13T03:24:23;100918.84;;;20.85;72.82
54948;BME280;41113;41.882;12.530;2022-09-13T03:37:49;100906.41;;;20.54;72.62
54948;BME280;41113;41.882;12.530;2022-09-13T03:43:04;100909.84;;;20.63;72.30
54948;BME280;41113;41.882;12.530;2022-09-13T03:45:35;100911.53;;;20.64;72.02
54948;BME280;41113;41.882;12.530;2022-09-13T03:48:06;100914.97;;;20.72;71.77
54948;BME280;41113;41.882;12.530;2022-09-13T03:50:34;100924.53;;;20.62;72.27
54948;BME280;41113;41.882;12.530;2022-09-13T03:53:03;100916.00;;;20.71;71.81
54948;BME280;41113;41.882;12.530;2022-09-13T03:55:32;100924.84;;;20.73;71.76
54948;BME280;41113;41.882;12.530;2022-09-13T03:57:59;100915.09;;;20.86;71.17
54948;BME280;41113;41.882;12.530;2022-09-13T04:00:25;100919.31;;;20.88;71.02
54948;BME280;41113;41.882;12.530;2022-09-13T04:02:51;100913.41;;;20.85;71.06
54948;BME280;41113;41.882;12.530;2022-09-13T04:05:17;100917.63;;;20.87;71.06
54948;BME280;41113;41.882;12.530;2022-09-13T04:07:42;100923.00;;;20.80;70.98
54948;BME280;41113;41.882;12.530;2022-09-13T04:10:08;100914.25;;;20.85;71.08
54948;BME280;41113;41.882;12.530;2022-09-13T04:12:34;100925.56;;;20.82;70.76
54948;BME280;41113;41.882;12.530;2022-09-13T04:15:00;100924.31;;;20.85;70.66
54948;BME280;41113;41.882;12.530;2022-09-13T04:17:26;100919.47;;;20.59;71.20
54948;BME280;41113;41.882;12.530;2022-09-13T04:19:51;100920.72;;;20.56;71.41
54948;BME280;41113;41.882;12.530;2022-09-13T04:22:17;100920.56;;;20.43;71.33
54948;BME280;41113;41.882;12.530;2022-09-13T04:24:43;100924.31;;;20.42;71.17
54948;BME280;41113;41.882;12.530;2022-09-13T04:27:09;100921.13;;;20.38;70.75
54948;BME280;41113;41.882;12.530;2022-09-13T04:29:34;100923.38;;;20.35;70.88
54948;BME280;41113;41.882;12.530;2022-09-13T04:32:00;100925.00;;;20.29;71.13
54948;BME280;41113;41.882;12.530;2022-09-13T04:34:26;100923.25;;;20.22;71.42
54948;BME280;41113;41.882;12.530;2022-09-13T04:36:52;100923.66;;;20.18;71.53
54948;BME280;41113;41.882;12.530;2022-09-13T04:39:19;100920.34;;;20.23;71.33
54948;BME280;41113;41.882;12.530;2022-09-13T04:41:46;100925.72;;;20.16;71.57
54948;BME280;41113;41.882;12.530;2022-09-13T04:44:13;100926.09;;;20.13;71.68
54948;BME280;41113;41.882;12.530;2022-09-13T04:46:39;100930.25;;;20.09;71.98
54948;BME280;41113;41.882;12.530;2022-09-13T04:49:04;100926.75;;;20.15;71.64
54948;BME280;41113;41.882;12.530;2022-09-13T04:51:30;100933.91;;;20.16;71.45
54948;BME280;41113;41.882;12.530;2022-09-13T04:53:56;100939.25;;;20.25;71.21
54948;BME280;41113;41.882;12.530;2022-09-13T04:56:22;100935.22;;;20.20;70.95
54948;BME280;41113;41.882;12.530;2022-09-13T04:58:53;100942.09;;;20.16;70.96
54948;BME280;41113;41.882;12.530;2022-09-13T05:01:20;100941.31;;;20.23;70.66
54948;BME280;41113;41.882;12.530;2022-09-13T05:03:46;100932.63;;;20.34;69.81
54948;BME280;41113;41.882;12.530;2022-09-13T05:06:14;100933.69;;;20.54;68.94
54948;BME280;41113;41.882;12.530;2022-09-13T05:08:44;100932.75;;;20.90;67.38
54948;BME280;41113;41.882;12.530;2022-09-13T05:11:10;100929.75;;;21.34;65.29
54948;BME280;41113;41.882;12.530;2022-09-13T05:13:36;100927.19;;;21.67;63.17
54948;BME280;41113;41.882;12.530;2022-09-13T05:16:04;100924.91;;;21.77;62.81
54948;BME280;41113;41.882;12.530;2022-09-13T05:18:32;100934.94;;;21.57;63.30
54948;BME280;41113;41.882;12.530;2022-09-13T05:23:25;100932.13;;;21.91;62.06
54948;BME280;41113;41.882;12.530;2022-09-13T05:25:58;100934.22;;;21.89;62.14
54948;BME280;41113;41.882;12.530;2022-09-13T05:28:25;100933.38;;;21.82;62.41
54948;BME280;41113;41.882;12.530;2022-09-13T05:33:21;100936.28;;;21.39;63.19
54948;BME280;41113;41.882;12.530;2022-09-13T05:35:46;100936.22;;;21.26;63.25
54948;BME280;41113;41.882;12.530;2022-09-13T05:38:12;100938.44;;;21.16;63.79
54948;BME280;41113;41.882;12.530;2022-09-13T05:40:37;100934.66;;;21.17;63.78
54948;BME280;41113;41.882;12.530;2022-09-13T05:43:02;100942.50;;;21.27;64.21
54948;BME280;41113;41.882;12.530;2022-09-13T05:45:28;100935.34;;;21.54;63.22
54948;BME280;41113;41.882;12.530;2022-09-13T05:47:53;100943.13;;;21.57;63.25
54948;BME280;41113;41.882;12.530;2022-09-13T05:50:19;100932.00;;;21.65;63.12
54948;BME280;41113;41.882;12.530;2022-09-13T05:52:51;100938.44;;;21.85;62.59
54948;BME280;41113;41.882;12.530;2022-09-13T05:55:16;100939.28;;;21.92;62.08
54948;BME280;41113;41.882;12.530;2022-09-13T05:57:42;100928.09;;;22.35;60.85
54948;BME280;41113;41.882;12.530;2022-09-13T06:00:08;100925.19;;;22.63;60.24
54948;BME280;41113;41.882;12.530;2022-09-13T06:02:33;100929.88;;;22.89;59.20
54948;BME280;41113;41.882;12.530;2022-09-13T06:04:59;100933.22;;;22.91;59.12
54948;BME280;41113;41.882;12.530;2022-09-13T06:07:24;100934.91;;;22.79;59.13
54948;BME280;41113;41.882;12.530;2022-09-13T06:09:50;100934.69;;;23.00;58.58
54948;BME280;41113;41.882;12.530;2022-09-13T06:12:16;100923.09;;;22.98;58.30
54948;BME280;41113;41.882;12.530;2022-09-13T06:14:41;100926.91;;;22.97;57.46
54948;BME280;41113;41.882;12.530;2022-09-13T06:17:07;100918.25;;;23.00;57.95
54948;BME280;41113;41.882;12.530;2022-09-13T06:19:32;100926.47;;;23.13;56.64
54948;BME280;41113;41.882;12.530;2022-09-13T06:21:57;100923.09;;;23.24;57.27
54948;BME280;41113;41.882;12.530;2022-09-13T06:24:23;100920.88;;;23.66;55.44
54948;BME280;41113;41.882;12.530;2022-09-13T06:26:49;100926.41;;;23.53;55.92
54948;BME280;41113;41.882;12.530;2022-09-13T06:29:14;100925.75;;;23.64;55.55
54948;BME280;41113;41.882;12.530;2022-09-13T06:31:40;100921.53;;;23.62;55.98
54948;BME280;41113;41.882;12.530;2022-09-13T06:34:10;100925.16;;;23.36;55.77
54948;BME280;41113;41.882;12.530;2022-09-13T06:36:37;100920.78;;;23.08;56.87
54948;BME280;41113;41.882;12.530;2022-09-13T06:39:02;100931.13;;;22.93;56.96
54948;BME280;41113;41.882;12.530;2022-09-13T06:41:30;100929.00;;;23.08;57.26
54948;BME280;41113;41.882;12.530;2022-09-13T06:43:57;100931.94;;;23.26;56.48
54948;BME280;41113;41.882;12.530;2022-09-13T06:46:25;100926.91;;;22.97;56.85
54948;BME280;41113;41.882;12.530;2022-09-13T06:48:51;100931.53;;;22.77;57.08
54948;BME280;41113;41.882;12.530;2022-09-13T06:51:19;100929.44;;;22.85;57.17
54948;BME280;41113;41.882;12.530;2022-09-13T06:53:46;100932.81;;;23.14;56.94
54948;BME280;41113;41.882;12.530;2022-09-13T06:56:21;100931.31;;;22.98;56.64
54948;BME280;41113;41.882;12.530;2022-09-13T06:58:49;100934.25;;;22.77;57.40
54948;BME280;41113;41.882;12.530;2022-09-13T07:01:16;100931.09;;;22.80;57.47
54948;BME280;41113;41.882;12.530;2022-09-13T07:03:44;100933.59;;;22.75;57.56
54948;BME280;41113;41.882;12.530;2022-09-13T07:06:15;100934.50;;;22.95;57.17
54948;BME280;41113;41.882;12.530;2022-09-13T07:08:42;100929.44;;;22.98;57.30
54948;BME280;41113;41.882;12.530;2022-09-13T07:11:10;100932.34;;;23.23;56.60
54948;BME280;41113;41.882;12.530;2022-09-13T07:13:37;100928.38;;;23.19;56.56
54948;BME280;41113;41.882;12.530;2022-09-13T07:16:07;100935.28;;;23.35;56.02
54948;BME280;41113;41.882;12.530;2022-09-13T07:18:33;100935.72;;;23.32;56.38
54948;BME280;41113;41.882;12.530;2022-09-13T07:21:09;100934.47;;;23.28;55.95
54948;BME280;41113;41.882;12.530;2022-09-13T07:23:38;100931.88;;;23.40;55.44
54948;BME280;41113;41.882;12.530;2022-09-13T07:26:05;100937.78;;;23.50;55.99
54948;BME280;41113;41.882;12.530;2022-09-13T07:28:37;100935.69;;;23.39;56.01
54948;BME280;41113;41.882;12.530;2022-09-13T07:31:11;100937.34;;;23.53;55.48
54948;BME280;41113;41.882;12.530;2022-09-13T07:33:38;100947.50;;;23.59;55.33
54948;BME280;41113;41.882;12.530;2022-09-13T07:36:04;100947.06;;;23.62;55.18
54948;BME280;41113;41.882;12.530;2022-09-13T07:38:34;100943.44;;;23.68;55.08
54948;BME280;41113;41.882;12.530;2022-09-13T07:41:01;100944.69;;;23.72;54.84
54948;BME280;41113;41.882;12.530;2022-09-13T07:43:27;100949.97;;;23.80;54.69
54948;BME280;41113;41.882;12.530;2022-09-13T07:46:03;100952.72;;;23.74;54.36
54948;BME280;41113;41.882;12.530;2022-09-13T07:48:31;100952.66;;;23.94;54.24
54948;BME280;41113;41.882;12.530;2022-09-13T07:51:05;100952.38;;;24.02;53.24
54948;BME280;41113;41.882;12.530;2022-09-13T07:53:31;100957.41;;;24.18;53.77
54948;BME280;41113;41.882;12.530;2022-09-13T07:56:24;100960.72;;;24.33;53.29
54948;BME280;41113;41.882;12.530;2022-09-13T07:58:53;100959.03;;;24.32;52.04
54948;BME280;41113;41.882;12.530;2022-09-13T08:01:24;100961.56;;;24.34;52.45
54948;BME280;41113;41.882;12.530;2022-09-13T08:04:01;100962.34;;;24.47;52.25
54948;BME280;41113;41.882;12.530;2022-09-13T08:06:28;100971.94;;;24.63;52.39
54948;BME280;41113;41.882;12.530;2022-09-13T08:08:55;100972.38;;;24.60;52.31
54948;BME280;41113;41.882;12.530;2022-09-13T08:11:23;100967.38;;;24.50;51.81
54948;BME280;41113;41.882;12.530;2022-09-13T08:13:50;100968.34;;;24.63;51.48
54948;BME280;41113;41.882;12.530;2022-09-13T08:16:18;100976.97;;;24.66;50.98
54948;BME280;41113;41.882;12.530;2022-09-13T08:18:50;100981.78;;;24.77;51.42
54948;BME280;41113;41.882;12.530;2022-09-13T08:21:15;100968.44;;;24.81;51.30
54948;BME280;41113;41.882;12.530;2022-09-13T08:23:42;100980.22;;;24.88;50.88
54948;BME280;41113;41.882;12.530;2022-09-13T08:26:08;100980.53;;;25.05;50.96
54948;BME280;41113;41.882;12.530;2022-09-13T08:28:35;100976.16;;;25.22;50.66
54948;BME280;41113;41.882;12.530;2022-09-13T08:31:11;100975.63;;;25.32;50.50
54948;BME280;41113;41.882;12.530;2022-09-13T08:33:45;100977.56;;;25.50;50.07
54948;BME280;41113;41.882;12.530;2022-09-13T08:36:11;100982.09;;;25.62;49.60
54948;BME280;41113;41.882;12.530;2022-09-13T08:38:36;100973.97;;;25.74;49.47
54948;BME280;41113;41.882;12.530;2022-09-13T08:41:11;100983.97;;;25.87;48.54
54948;BME280;41113;41.882;12.530;2022-09-13T08:43:48;100993.13;;;25.99;48.13
54948;BME280;41113;41.882;12.530;2022-09-13T08:48:49;100990.19;;;26.49;47.33
54948;BME280;41113;41.882;12.530;2022-09-13T08:51:41;100992.56;;;26.75;45.37
54948;BME280;41113;41.882;12.530;2022-09-13T08:54:10;100991.09;;;27.03;46.86
54948;BME280;41113;41.882;12.530;2022-09-13T09:05:15;100988.56;;;27.59;44.64
54948;BME280;41113;41.882;12.530;2022-09-13T09:10:32;100989.28;;;27.90;43.14
54948;BME280;41113;41.882;12.530;2022-09-13T09:15:51;100987.84;;;27.99;43.59
54948;BME280;41113;41.882;12.530;2022-09-13T09:18:18;100992.03;;;28.02;44.57
54948;BME280;41113;41.882;12.530;2022-09-13T09:20:47;100987.06;;;28.15;44.30
54948;BME280;41113;41.882;12.530;2022-09-13T09:23:17;100977.53;;;28.23;43.85
54948;BME280;41113;41.882;12.530;2022-09-13T09:25:43;100993.53;;;28.33;43.70
54948;BME280;41113;41.882;12.530;2022-09-13T09:28:13;100986.81;;;28.29;42.76
54948;BME280;41113;41.882;12.530;2022-09-13T09:38:39;100981.75;;;28.37;42.92
54948;BME280;41113;41.882;12.530;2022-09-13T09:41:18;100973.63;;;28.31;41.88
54948;BME280;41113;41.882;12.530;2022-09-13T09:46:39;100970.69;;;28.37;42.75
54948;BME280;41113;41.882;12.530;2022-09-13T09:49:32;100970.72;;;28.26;39.49
54948;BME280;41113;41.882;12.530;2022-09-13T09:52:25;100967.97;;;28.26;42.29
54948;BME280;41113;41.882;12.530;2022-09-13T09:54:55;100966.41;;;28.30;42.56
54948;BME280;41113;41.882;12.530;2022-09-13T10:00:19;100960.25;;;28.56;41.79
54948;BME280;41113;41.882;12.530;2022-09-13T10:02:46;100965.88;;;28.61;41.82
54948;BME280;41113;41.882;12.530;2022-09-13T10:05:13;100958.06;;;28.58;41.73
54948;BME280;41113;41.882;12.530;2022-09-13T10:07:42;100962.69;;;28.52;41.54
54948;BME280;41113;41.882;12.530;2022-09-13T10:10:20;100960.06;;;28.46;40.67
54948;BME280;41113;41.882;12.530;2022-09-13T10:12:51;100961.56;;;28.65;41.58
54948;BME280;41113;41.882;12.530;2022-09-13T10:15:18;100950.41;;;28.77;38.54
54948;BME280;41113;41.882;12.530;2022-09-13T10:18:16;100952.28;;;28.88;39.55
54948;BME280;41113;41.882;12.530;2022-09-13T10:20:51;100937.44;;;28.77;40.98
54948;BME280;41113;41.882;12.530;2022-09-13T10:23:24;100945.97;;;28.76;40.79
54948;BME280;41113;41.882;12.530;2022-09-13T10:26:08;100940.97;;;28.90;38.79
54948;BME280;41113;41.882;12.530;2022-09-13T10:29:07;100938.78;;;28.92;38.06
54948;BME280;41113;41.882;12.530;2022-09-13T10:31:38;100947.41;;;28.78;39.35
54948;BME280;41113;41.882;12.530;2022-09-13T10:34:16;100943.88;;;28.66;35.69
54948;BME280;41113;41.882;12.530;2022-09-13T10:37:01;100945.00;;;28.54;38.02
54948;BME280;41113;41.882;12.530;2022-09-13T10:39:29;100933.78;;;28.60;38.57
54948;BME280;41113;41.882;12.530;2022-09-13T10:42:05;100926.28;;;28.72;36.86
54948;BME280;41113;41.882;12.530;2022-09-13T10:44:45;100929.81;;;28.85;36.77
54948;BME280;41113;41.882;12.530;2022-09-13T10:47:22;100923.63;;;28.94;38.15
54948;BME280;41113;41.882;12.530;2022-09-13T10:49:50;100923.22;;;29.02;38.47
54948;BME280;41113;41.882;12.530;2022-09-13T10:52:43;100920.78;;;29.06;34.90
54948;BME280;41113;41.882;12.530;2022-09-13T10:57:47;100924.13;;;29.08;37.78
54948;BME280;41113;41.882;12.530;2022-09-13T11:00:22;100913.56;;;29.05;36.21
54948;BME280;41113;41.882;12.530;2022-09-13T11:16:31;100899.78;;;29.27;35.34
54948;BME280;41113;41.882;12.530;2022-09-13T11:27:31;100911.53;;;29.17;34.41
54948;BME280;41113;41.882;12.530;2022-09-13T11:30:19;100904.19;;;29.06;35.32
54948;BME280;41113;41.882;12.530;2022-09-13T11:33:23;100905.88;;;29.07;34.13
54948;BME280;41113;41.882;12.530;2022-09-13T11:39:18;100909.06;;;28.99;34.57
54948;BME280;41113;41.882;12.530;2022-09-13T11:47:11;100911.53;;;29.17;35.54
54948;BME280;41113;41.882;12.530;2022-09-13T11:52:45;100910.69;;;29.17;32.62
54948;BME280;41113;41.882;12.530;2022-09-13T11:55:38;100910.03;;;29.09;32.23
54948;BME280;41113;41.882;12.530;2022-09-13T11:58:29;100904.34;;;29.16;34.46
54948;BME280;41113;41.882;12.530;2022-09-13T12:01:04;100894.09;;;29.17;32.93
54948;BME280;41113;41.882;12.530;2022-09-13T12:03:55;100896.47;;;29.08;32.89
54948;BME280;41113;41.882;12.530;2022-09-13T12:06:27;100894.72;;;29.02;32.92
54948;BME280;41113;41.882;12.530;2022-09-13T12:09:16;100890.28;;;29.01;33.33
54948;BME280;41113;41.882;12.530;2022-09-13T12:11:47;100892.53;;;29.04;34.57
54948;BME280;41113;41.882;12.530;2022-09-13T12:14:18;100898.00;;;28.99;32.73
54948;BME280;41113;41.882;12.530;2022-09-13T12:16:49;100890.94;;;28.91;34.27
54948;BME280;41113;41.882;12.530;2022-09-13T12:19:21;100891.13;;;28.85;34.31
54948;BME280;41113;41.882;12.530;2022-09-13T12:21:48;100888.94;;;28.87;34.02
54948;BME280;41113;41.882;12.530;2022-09-13T12:24:34;100887.75;;;28.82;33.04
54948;BME280;41113;41.882;12.530;2022-09-13T12:27:06;100883.75;;;28.90;34.17
54948;BME280;41113;41.882;12.530;2022-09-13T12:29:53;100882.22;;;28.82;32.50
54948;BME280;41113;41.882;12.530;2022-09-13T12:32:20;100880.06;;;28.85;34.36
54948;BME280;41113;41.882;12.530;2022-09-13T12:35:02;100884.00;;;28.89;32.50
54948;BME280;41113;41.882;12.530;2022-09-13T12:44:06;100881.28;;;28.77;32.61
54948;BME280;41113;41.882;12.530;2022-09-13T12:52:24;100875.59;;;28.83;33.98
54948;BME280;41113;41.882;12.530;2022-09-13T12:55:11;100887.28;;;28.86;33.88
54948;BME280;41113;41.882;12.530;2022-09-13T12:58:16;100889.91;;;28.80;32.70
54948;BME280;41113;41.882;12.530;2022-09-13T13:03:29;100878.72;;;28.87;34.42
54948;BME280;41113;41.882;12.530;2022-09-13T13:06:10;100868.50;;;28.88;33.61
54948;BME280;41113;41.882;12.530;2022-09-13T13:08:50;100871.50;;;28.86;33.19
54948;BME280;41113;41.882;12.530;2022-09-13T13:11:20;100860.78;;;28.90;34.20
54948;BME280;41113;41.882;12.530;2022-09-13T13:13:59;100861.94;;;28.94;33.49
54948;BME280;41113;41.882;12.530;2022-09-13T13:16:38;100865.97;;;28.86;34.47
54948;BME280;41113;41.882;12.530;2022-09-13T13:19:30;100866.97;;;28.80;32.37
54948;BME280;41113;41.882;12.530;2022-09-13T13:25:30;100850.75;;;28.67;32.64
54948;BME280;41113;41.882;12.530;2022-09-13T13:27:57;100848.22;;;28.65;34.84
54948;BME280;41113;41.882;12.530;2022-09-13T13:30:41;100846.56;;;28.64;33.18
54948;BME280;41113;41.882;12.530;2022-09-13T13:33:26;100838.00;;;28.66;33.28
54948;BME280;41113;41.882;12.530;2022-09-13T13:35:52;100839.81;;;28.60;34.62
54948;BME280;41113;41.882;12.530;2022-09-13T13:38:44;100834.81;;;28.57;33.41
54948;BME280;41113;41.882;12.530;2022-09-13T13:44:01;100829.88;;;28.59;34.40
54948;BME280;41113;41.882;12.530;2022-09-13T13:46:47;100834.81;;;28.57;34.36
54948;BME280;41113;41.882;12.530;2022-09-13T13:57:29;100814.13;;;28.43;32.76
54948;BME280;41113;41.882;12.530;2022-09-13T14:05:52;100826.50;;;28.57;32.63
54948;BME280;41113;41.882;12.530;2022-09-13T14:08:49;100834.81;;;28.57;32.81
54948;BME280;41113;41.882;12.530;2022-09-13T14:11:45;100853.47;;;28.50;33.83
54948;BME280;41113;41.882;12.530;2022-09-13T14:19:26;100851.56;;;28.34;34.19
54948;BME280;41113;41.882;12.530;2022-09-13T14:24:35;100844.19;;;28.39;33.45
54948;BME280;41113;41.882;12.530;2022-09-13T14:27:01;100846.03;;;28.34;34.51
54948;BME280;41113;41.882;12.530;2022-09-13T14:29:27;100842.19;;;28.35;34.44
54948;BME280;41113;41.882;12.530;2022-09-13T14:32:01;100843.94;;;28.41;32.30
54948;BME280;41113;41.882;12.530;2022-09-13T14:34:31;100845.94;;;28.45;34.13
54948;BME280;41113;41.882;12.530;2022-09-13T14:37:00;100844.38;;;28.33;32.63
54948;BME280;41113;41.882;12.530;2022-09-13T14:39:27;100838.34;;;28.36;34.43
54948;BME280;41113;41.882;12.530;2022-09-13T14:42:12;100842.31;;;28.28;34.15
54948;BME280;41113;41.882;12.530;2022-09-13T14:44:43;100839.34;;;28.30;34.65
54948;BME280;41113;41.882;12.530;2022-09-13T14:47:32;100847.00;;;28.28;34.67
54948;BME280;41113;41.882;12.530;2022-09-13T14:50:04;100854.72;;;28.26;35.57
54948;BME280;41113;41.882;12.530;2022-09-13T14:52:35;100849.19;;;28.26;35.62
54948;BME280;41113;41.882;12.530;2022-09-13T14:55:05;100863.97;;;28.19;36.11
54948;BME280;41113;41.882;12.530;2022-09-13T14:57:45;100870.22;;;28.15;35.83
54948;BME280;41113;41.882;12.530;2022-09-13T15:00:18;100864.97;;;28.13;36.25
54948;BME280;41113;41.882;12.530;2022-09-13T15:03:09;100859.94;;;28.10;36.69
54948;BME280;41113;41.882;12.530;2022-09-13T15:05:36;100850.56;;;28.11;36.99
54948;BME280;41113;41.882;12.530;2022-09-13T15:11:00;100854.91;;;28.07;37.84
54948;BME280;41113;41.882;12.530;2022-09-13T15:13:26;100845.44;;;28.03;38.54
54948;BME280;41113;41.882;12.530;2022-09-13T15:15:52;100851.47;;;28.00;38.73
54948;BME280;41113;41.882;12.530;2022-09-13T15:20:59;100848.72;;;28.00;39.48
54948;BME280;41113;41.882;12.530;2022-09-13T15:23:32;100852.69;;;27.93;39.74
54948;BME280;41113;41.882;12.530;2022-09-13T15:28:32;100854.25;;;27.88;39.72
54948;BME280;41113;41.882;12.530;2022-09-13T15:30:59;100847.91;;;27.88;39.55
54948;BME280;41113;41.882;12.530;2022-09-13T15:33:30;100846.72;;;27.84;39.55
54948;BME280;41113;41.882;12.530;2022-09-13T15:38:59;100843.28;;;27.77;40.12
54948;BME280;41113;41.882;12.530;2022-09-13T15:41:33;100849.88;;;27.76;40.13
54948;BME280;41113;41.882;12.530;2022-09-13T15:44:00;100846.03;;;27.77;39.92
54948;BME280;41113;41.882;12.530;2022-09-13T15:46:26;100836.34;;;27.74;40.47
54948;BME280;41113;41.882;12.530;2022-09-13T15:48:55;100830.47;;;27.71;40.42
54948;BME280;41113;41.882;12.530;2022-09-13T15:51:24;100840.31;;;27.67;40.59
54948;BME280;41113;41.882;12.530;2022-09-13T15:53:50;100840.78;;;27.64;40.73
54948;BME280;41113;41.882;12.530;2022-09-13T15:56:21;100834.44;;;27.63;40.96
54948;BME280;41113;41.882;12.530;2022-09-13T15:58:48;100832.28;;;27.65;40.82
54948;BME280;41113;41.882;12.530;2022-09-13T16:01:14;100844.84;;;27.61;41.11
54948;BME280;41113;41.882;12.530;2022-09-13T16:03:40;100838.75;;;27.59;40.94
54948;BME280;41113;41.882;12.530;2022-09-13T16:06:06;100837.91;;;27.58;41.00